Sagittarian — WCY5210 — position and weather

sailwx.info

Track history (hours):
 
Tides and Currents Weather Stations Pressure Air Temp Water Temp Dewpoint Dewpoint Depression Visibility Wind Speed Wind Dir Waves Ship Positions

Sagittarian

More information available from US FCC via Universal Licensing System and Coast Guard Vessel Documentation Center.

Last reported at 2014-Sep-02 15:17 UTC. Time now 2014-Sep-02 21:40 UTC.
Position N 37°46' W 122°23'.

; draft 3 m.

Type: Towing. MMSI: 366969510.

Date/timePositionNaut miles runAvg speedWind from/ knotsBaromVisibWave heightAir tempDewpointWater temp
2014-Sep-02 15:17N 37°46' W 122°23'3 4.7
2014-Sep-02 14:33N 37°50' W 122°24'11 8.2
2014-Sep-02 13:15N 38°01' W 122°23'6 8.5
2014-Sep-02 12:32N 38°03' W 122°17'3 1.4
2014-Sep-02 10:24N 38°04' W 122°13'3 0.5
2014-Sep-02 04:24N 38°05' W 122°16'0 0.0
2014-Sep-02 03:33N 38°05' W 122°16'0 0.0
2014-Sep-02 02:27N 38°05' W 122°16'0 0.0
2014-Sep-02 01:32N 38°05' W 122°16'0 0.0
2014-Sep-02 00:33N 38°05' W 122°16'5 0.5
2014-Sep-01 14:24N 38°03' W 122°10'6 6.6
2014-Sep-01 13:29N 38°03' W 122°18'6 6.5
2014-Sep-01 12:32N 37°60' W 122°25'5 4.6
2014-Sep-01 11:25N 37°55' W 122°27'3 3.4
2014-Sep-01 10:33N 37°52' W 122°25'4 4.1
2014-Sep-01 09:33N 37°49' W 122°28'3 2.6
2014-Sep-01 08:33N 37°49' W 122°31'5 4.6
2014-Sep-01 07:33N 37°49' W 122°25'3 3.1
2014-Sep-01 06:33N 37°46' W 122°23'0 0.0
2014-Sep-01 05:33N 37°46' W 122°23'0 0.0
2014-Sep-01 04:33N 37°46' W 122°23'0 0.5
2014-Sep-01 03:33N 37°47' W 122°23'0 0.0
2014-Aug-31 05:33N 37°46' W 122°23'5 5.0
2014-Aug-31 04:33N 37°49' W 122°29'1 0.9
2014-Aug-31 03:33N 37°49' W 122°30'7 6.6
2014-Aug-31 02:33N 37°55' W 122°26'1 1.0
2014-Aug-31 01:33N 37°55' W 122°25'1 0.5
2014-Aug-31 00:33N 37°55' W 122°25'8 8.4
2014-Aug-30 23:34N 37°47' W 122°23'0 0.0
2014-Aug-30 02:08N 37°46' W 122°23'3 5.8
2014-Aug-30 01:33N 37°50' W 122°24'6 5.6
2014-Aug-30 00:33N 37°55' W 122°25'1 1.4
2014-Aug-29 23:33N 37°56' W 122°26'9 7.1
2014-Aug-29 22:13N 38°03' W 122°18'8 2.8
2014-Aug-29 19:22N 38°02' W 122°08'4 0.3
2014-Aug-29 06:03N 38°04' W 122°13'4 7.2
2014-Aug-29 05:33N 38°03' W 122°17'8 7.5
2014-Aug-29 04:32N 37°59' W 122°25'0 0.3
2014-Aug-29 03:11N 37°60' W 122°25'710.5
2014-Aug-29 02:33N 38°03' W 122°18'  
2014-Aug-25 23:24N 38°03' W 122°13'12 6.1
2014-Aug-25 21:30N 37°57' W 122°26'5 5.1
2014-Aug-25 20:33N 37°53' W 122°24'6 0.4
2014-Aug-25 03:33N 37°47' W 122°23'9 6.6
2014-Aug-25 02:12N 37°55' W 122°25'2 2.5
2014-Aug-25 01:33N 37°54' W 122°25'1 0.9
2014-Aug-25 00:33N 37°54' W 122°26'3 2.9
2014-Aug-24 23:33N 37°52' W 122°24'5 0.2
2014-Aug-23 20:31N 37°46' W 122°23'0 0.0
2014-Aug-23 19:33N 37°46' W 122°23'  
Track history (hours):
 
Tides and Currents Weather Stations Pressure Air Temp Water Temp Dewpoint Dewpoint Depression Visibility Wind Speed Wind Dir Waves Ship Positions

Sagittarian

More information available from US FCC via Universal Licensing System and Coast Guard Vessel Documentation Center.

Last reported at 2014-Sep-02 15:17 UTC. Time now 2014-Sep-02 21:40 UTC.
Position N 37°46' W 122°23'.

; draft 3 m.

Type: Towing. MMSI: 366969510.

Date/timePositionNaut miles runAvg speedWind from/ knotsBaromVisibWave heightAir tempDewpointWater temp
2014-Sep-02 15:17N 37°46' W 122°23'3 4.7
2014-Sep-02 14:33N 37°50' W 122°24'11 8.2
2014-Sep-02 13:15N 38°01' W 122°23'6 8.5
2014-Sep-02 12:32N 38°03' W 122°17'3 1.4
2014-Sep-02 10:24N 38°04' W 122°13'3 0.5
2014-Sep-02 04:24N 38°05' W 122°16'0 0.0
2014-Sep-02 03:33N 38°05' W 122°16'0 0.0
2014-Sep-02 02:27N 38°05' W 122°16'0 0.0
2014-Sep-02 01:32N 38°05' W 122°16'0 0.0
2014-Sep-02 00:33N 38°05' W 122°16'5 0.5
2014-Sep-01 14:24N 38°03' W 122°10'6 6.6
2014-Sep-01 13:29N 38°03' W 122°18'6 6.5
2014-Sep-01 12:32N 37°60' W 122°25'5 4.6
2014-Sep-01 11:25N 37°55' W 122°27'3 3.4
2014-Sep-01 10:33N 37°52' W 122°25'4 4.1
2014-Sep-01 09:33N 37°49' W 122°28'3 2.6
2014-Sep-01 08:33N 37°49' W 122°31'5 4.6
2014-Sep-01 07:33N 37°49' W 122°25'3 3.1
2014-Sep-01 06:33N 37°46' W 122°23'0 0.0
2014-Sep-01 05:33N 37°46' W 122°23'0 0.0
2014-Sep-01 04:33N 37°46' W 122°23'0 0.5
2014-Sep-01 03:33N 37°47' W 122°23'0 0.0
2014-Aug-31 05:33N 37°46' W 122°23'5 5.0
2014-Aug-31 04:33N 37°49' W 122°29'1 0.9
2014-Aug-31 03:33N 37°49' W 122°30'7 6.6
2014-Aug-31 02:33N 37°55' W 122°26'1 1.0
2014-Aug-31 01:33N 37°55' W 122°25'1 0.5
2014-Aug-31 00:33N 37°55' W 122°25'8 8.4
2014-Aug-30 23:34N 37°47' W 122°23'0 0.0
2014-Aug-30 02:08N 37°46' W 122°23'3 5.8
2014-Aug-30 01:33N 37°50' W 122°24'6 5.6
2014-Aug-30 00:33N 37°55' W 122°25'1 1.4
2014-Aug-29 23:33N 37°56' W 122°26'9 7.1
2014-Aug-29 22:13N 38°03' W 122°18'8 2.8
2014-Aug-29 19:22N 38°02' W 122°08'4 0.3
2014-Aug-29 06:03N 38°04' W 122°13'4 7.2
2014-Aug-29 05:33N 38°03' W 122°17'8 7.5
2014-Aug-29 04:32N 37°59' W 122°25'0 0.3
2014-Aug-29 03:11N 37°60' W 122°25'710.5
2014-Aug-29 02:33N 38°03' W 122°18'  
2014-Aug-25 23:24N 38°03' W 122°13'12 6.1
2014-Aug-25 21:30N 37°57' W 122°26'5 5.1
2014-Aug-25 20:33N 37°53' W 122°24'6 0.4
2014-Aug-25 03:33N 37°47' W 122°23'9 6.6
2014-Aug-25 02:12N 37°55' W 122°25'2 2.5
2014-Aug-25 01:33N 37°54' W 122°25'1 0.9
2014-Aug-25 00:33N 37°54' W 122°26'3 2.9
2014-Aug-24 23:33N 37°52' W 122°24'5 0.2
2014-Aug-23 20:31N 37°46' W 122°23'0 0.0
2014-Aug-23 19:33N 37°46' W 122°23'  

Dump ship's entire track history